createdAt,value
2023-04-07T00:01:44.910Z,100703.78
2023-04-07T00:04:11.781Z,100708.03
2023-04-07T00:06:38.584Z,100703.47
2023-04-07T00:09:05.300Z,100705.00
2023-04-07T00:11:32.119Z,100712.31
2023-04-07T00:13:58.935Z,100709.94
2023-04-07T00:16:27.447Z,100711.59
2023-04-07T00:18:54.207Z,100704.47
2023-04-07T00:21:21.202Z,100701.25
2023-04-07T00:23:48.028Z,100701.59
2023-04-07T00:26:14.817Z,100703.78
2023-04-07T00:28:41.819Z,100706.84
2023-04-07T00:31:08.627Z,100707.34
2023-04-07T00:33:36.936Z,100714.47
2023-04-07T00:36:04.250Z,100713.22
2023-04-07T00:38:31.098Z,100722.41
2023-04-07T00:40:58.396Z,100715.94
2023-04-07T00:43:27.881Z,100716.31
2023-04-07T00:45:54.827Z,100715.97
2023-04-07T00:48:22.323Z,100715.09
2023-04-07T00:50:50.571Z,100720.88
2023-04-07T00:53:17.584Z,100718.97
2023-04-07T00:55:44.599Z,100717.53
2023-04-07T00:58:11.696Z,100723.63
2023-04-07T01:00:45.663Z,100726.66
2023-04-07T01:03:21.979Z,100723.97
2023-04-07T01:05:56.018Z,100718.38
2023-04-07T01:08:30.478Z,100717.66
2023-04-07T01:11:06.079Z,100720.88
2023-04-07T01:13:37.929Z,100726.94
2023-04-07T01:16:11.268Z,100725.66
2023-04-07T01:18:40.699Z,100730.00
2023-04-07T01:21:14.322Z,100723.03
2023-04-07T01:24:01.488Z,100708.81
2023-04-07T01:26:31.074Z,100702.03
2023-04-07T01:29:34.256Z,100701.69
2023-04-07T01:32:04.506Z,100709.69
2023-04-07T01:34:33.117Z,100706.63
2023-04-07T01:37:03.013Z,100701.25
2023-04-07T01:39:36.062Z,100701.84
2023-04-07T01:42:06.032Z,100707.44
2023-04-07T01:44:33.586Z,100715.84
2023-04-07T01:47:02.902Z,100714.97
2023-04-07T01:49:31.476Z,100716.78
2023-04-07T01:51:58.570Z,100709.09
2023-04-07T01:54:26.859Z,100714.56
2023-04-07T01:56:53.692Z,100720.66
2023-04-07T01:59:20.738Z,100723.66
2023-04-07T02:01:48.445Z,100721.56
2023-04-07T02:04:26.110Z,100718.72
2023-04-07T02:06:58.182Z,100715.03
2023-04-07T02:09:28.610Z,100718.09
2023-04-07T02:11:57.516Z,100717.78
2023-04-07T02:14:25.286Z,100716.78
2023-04-07T02:16:53.694Z,100716.38
2023-04-07T02:19:23.058Z,100718.63
2023-04-07T02:21:52.442Z,100708.81
2023-04-07T02:24:20.498Z,100709.59
2023-04-07T02:26:47.311Z,100703.94
2023-04-07T02:29:14.386Z,100707.06
2023-04-07T02:31:41.159Z,100706.06
2023-04-07T02:34:07.938Z,100706.53
2023-04-07T02:36:36.286Z,100708.44
2023-04-07T02:39:03.256Z,100705.25
2023-04-07T02:41:30.268Z,100700.38
2023-04-07T02:43:57.403Z,100697.22
2023-04-07T02:46:24.613Z,100698.44
2023-04-07T02:48:51.640Z,100693.50
2023-04-07T02:51:18.720Z,100696.38
2023-04-07T02:53:47.386Z,100696.22
2023-04-07T02:56:16.744Z,100707.34
2023-04-07T02:58:44.082Z,100708.31
2023-04-07T03:01:11.139Z,100711.06
2023-04-07T03:03:38.117Z,100714.31
2023-04-07T03:06:05.142Z,100714.38
2023-04-07T03:08:32.209Z,100707.19
2023-04-07T03:11:00.404Z,100706.78
2023-04-07T03:13:27.160Z,100715.75
2023-04-07T03:15:54.564Z,100712.75
2023-04-07T03:18:21.503Z,100712.00
2023-04-07T03:20:48.872Z,100705.88
2023-04-07T03:23:16.099Z,100709.75
2023-04-07T03:25:42.906Z,100714.38
2023-04-07T03:28:11.578Z,100716.25
2023-04-07T03:30:38.401Z,100711.97
2023-04-07T03:33:05.863Z,100714.44
2023-04-07T03:35:32.683Z,100716.66
2023-04-07T03:37:59.604Z,100717.88
2023-04-07T03:40:26.630Z,100716.16
2023-04-07T03:42:54.723Z,100721.50
2023-04-07T03:45:23.426Z,100726.84
2023-04-07T03:47:50.477Z,100725.63
2023-04-07T03:50:17.559Z,100723.88
2023-04-07T03:52:44.257Z,100725.72
2023-04-07T03:55:11.036Z,100728.28
2023-04-07T03:57:38.168Z,100726.28
2023-04-07T04:00:06.534Z,100730.91
2023-04-07T04:02:35.192Z,100726.03
2023-04-07T04:05:02.015Z,100734.19
2023-04-07T04:07:29.855Z,100731.19
2023-04-07T04:09:56.851Z,100731.66
2023-04-07T04:12:23.650Z,100727.41
2023-04-07T04:14:52.978Z,100732.72
2023-04-07T04:17:19.820Z,100732.44
2023-04-07T04:19:48.138Z,100738.28
2023-04-07T04:22:15.560Z,100735.34
2023-04-07T04:24:42.542Z,100743.84
2023-04-07T04:27:09.841Z,100737.72
2023-04-07T04:29:36.744Z,100745.84
2023-04-07T04:32:03.471Z,100753.66
2023-04-07T04:34:31.733Z,100755.44
2023-04-07T04:37:00.805Z,100756.66
2023-04-07T04:39:27.571Z,100753.91
2023-04-07T04:41:54.866Z,100750.19
2023-04-07T04:44:23.502Z,100754.97
2023-04-07T04:46:50.565Z,100753.97
2023-04-07T04:49:17.339Z,100766.19
2023-04-07T04:51:44.135Z,100764.03
2023-04-07T04:54:12.406Z,100766.44
2023-04-07T04:56:40.443Z,100760.78
2023-04-07T04:59:07.230Z,100765.78
2023-04-07T05:01:35.357Z,100776.59
2023-04-07T05:04:02.350Z,100763.59
2023-04-07T05:06:29.207Z,100771.28
2023-04-07T05:08:56.077Z,100770.84
2023-04-07T05:11:24.525Z,100781.63
2023-04-07T05:13:51.784Z,100783.03
2023-04-07T05:16:18.800Z,100787.28
2023-04-07T05:18:45.870Z,100785.44
2023-04-07T05:21:12.663Z,100786.59
2023-04-07T05:23:39.589Z,100792.97
2023-04-07T05:26:07.754Z,100792.28
2023-04-07T05:28:36.443Z,100789.28
2023-04-07T05:31:05.729Z,100790.28
2023-04-07T05:33:34.810Z,100783.72
2023-04-07T05:36:01.590Z,100788.84
2023-04-07T05:38:29.651Z,100798.09
2023-04-07T05:40:56.692Z,100796.69
2023-04-07T05:43:23.726Z,100794.41
2023-04-07T05:45:52.107Z,100807.41
2023-04-07T05:48:19.211Z,100805.84
2023-04-07T05:50:46.295Z,100812.78
2023-04-07T05:53:13.064Z,100812.44
2023-04-07T05:55:43.029Z,100818.28
2023-04-07T05:58:09.742Z,100821.38
2023-04-07T06:00:36.797Z,100821.53
2023-04-07T06:03:05.765Z,100829.84
2023-04-07T06:05:33.452Z,100831.66
2023-04-07T06:08:00.374Z,100834.56
2023-04-07T06:10:27.887Z,100828.47
2023-04-07T06:12:55.106Z,100841.78
2023-04-07T06:15:22.895Z,100844.03
2023-04-07T06:17:49.655Z,100845.94
2023-04-07T06:20:18.063Z,100846.94
2023-04-07T06:22:45.868Z,100849.00
2023-04-07T06:25:12.671Z,100845.81
2023-04-07T06:27:39.863Z,100849.88
2023-04-07T06:30:08.678Z,100865.91
2023-04-07T06:32:35.727Z,100871.09
2023-04-07T06:35:03.057Z,100871.56
2023-04-07T06:37:31.423Z,100876.00
2023-04-07T06:39:58.371Z,100876.34
2023-04-07T06:42:25.593Z,100888.66
2023-04-07T06:44:53.088Z,100889.59
2023-04-07T06:47:19.880Z,100890.69
2023-04-07T06:49:46.581Z,100895.00
2023-04-07T06:52:13.596Z,100900.47
2023-04-07T06:54:41.957Z,100899.97
2023-04-07T06:57:09.440Z,100910.31
2023-04-07T06:59:43.635Z,100911.13
2023-04-07T07:02:10.730Z,100905.84
2023-04-07T07:04:37.852Z,100902.03
2023-04-07T07:07:04.741Z,100899.97
2023-04-07T07:09:34.125Z,100911.31
2023-04-07T07:12:03.991Z,100919.44
2023-04-07T07:14:31.373Z,100924.00
2023-04-07T07:16:58.527Z,100939.38
2023-04-07T07:19:25.756Z,100948.00
2023-04-07T07:21:53.427Z,100955.34
2023-04-07T07:24:20.518Z,100953.41
2023-04-07T07:26:47.843Z,100956.19
2023-04-07T07:29:16.596Z,100959.19
2023-04-07T07:31:46.701Z,100963.09
2023-04-07T07:34:13.426Z,100966.69
2023-04-07T07:36:40.505Z,100980.75
2023-04-07T07:39:07.784Z,100980.88
2023-04-07T07:41:34.834Z,100973.50
2023-04-07T07:44:01.650Z,100979.53
2023-04-07T07:46:31.802Z,100983.47
2023-04-07T07:48:58.786Z,100980.34
2023-04-07T07:51:25.922Z,100975.13
2023-04-07T07:53:53.813Z,100981.06
2023-04-07T07:56:20.857Z,100983.19
2023-04-07T07:58:48.382Z,100975.81
2023-04-07T08:01:15.534Z,100968.16
2023-04-07T08:03:45.115Z,100975.03
2023-04-07T08:06:13.397Z,100967.75
2023-04-07T08:08:40.569Z,100974.56
2023-04-07T08:11:07.423Z,100968.81
2023-04-07T08:13:37.419Z,100974.97
2023-04-07T08:16:04.862Z,100969.63
2023-04-07T08:18:31.713Z,100975.03
2023-04-07T08:21:00.007Z,100975.97
2023-04-07T08:23:27.034Z,100964.41
2023-04-07T08:25:54.032Z,100963.25
2023-04-07T08:28:24.407Z,100957.41
2023-04-07T08:30:51.148Z,100978.72
2023-04-07T08:33:17.868Z,100972.09
2023-04-07T08:35:45.042Z,100975.41
2023-04-07T08:38:13.333Z,100981.25
2023-04-07T08:40:40.562Z,100978.09
2023-04-07T08:43:09.985Z,100975.13
2023-04-07T08:45:40.532Z,100983.22
2023-04-07T08:48:16.078Z,100984.09
2023-04-07T08:50:45.619Z,100984.38
2023-04-07T08:53:18.886Z,100992.59
2023-04-07T08:55:45.982Z,100977.97
2023-04-07T08:58:14.882Z,100984.94
2023-04-07T09:00:44.004Z,100975.84
2023-04-07T09:03:11.986Z,100978.19
2023-04-07T09:05:39.308Z,100978.31
2023-04-07T09:08:06.415Z,100988.09
2023-04-07T09:10:36.558Z,100989.72
2023-04-07T09:13:03.414Z,100977.25
2023-04-07T09:15:31.426Z,100985.94
2023-04-07T09:17:58.789Z,100991.72
2023-04-07T09:20:25.867Z,100999.72
2023-04-07T09:22:52.628Z,100995.69
2023-04-07T09:25:21.235Z,100996.78
2023-04-07T09:28:03.888Z,100992.56
2023-04-07T09:30:32.526Z,100995.50
2023-04-07T09:33:00.590Z,100997.25
2023-04-07T09:35:27.647Z,100997.28
2023-04-07T09:38:05.505Z,100999.53
2023-04-07T09:40:33.107Z,100994.66
2023-04-07T09:43:02.891Z,100989.91
2023-04-07T09:45:35.435Z,100978.53
2023-04-07T09:48:06.824Z,100986.66
2023-04-07T09:50:34.747Z,100991.31
2023-04-07T09:53:02.045Z,100992.59
2023-04-07T09:55:29.102Z,100980.16
2023-04-07T09:57:55.909Z,100978.41
2023-04-07T10:00:24.847Z,100977.63
2023-04-07T10:02:53.266Z,100987.41
2023-04-07T10:05:21.379Z,100987.22
2023-04-07T10:07:48.758Z,100984.47
2023-04-07T10:10:16.422Z,100991.72
2023-04-07T10:12:44.361Z,100973.38
2023-04-07T10:15:13.210Z,100973.94
2023-04-07T10:17:45.663Z,100976.84
2023-04-07T10:20:13.689Z,100966.44
2023-04-07T10:22:42.594Z,100965.34
2023-04-07T10:25:12.320Z,100970.84
2023-04-07T10:27:43.441Z,100967.22
2023-04-07T10:30:15.954Z,100970.13
2023-04-07T10:32:50.598Z,100967.84
2023-04-07T10:35:18.972Z,100979.28
2023-04-07T10:38:11.449Z,100976.78
2023-04-07T10:40:39.031Z,100976.06
2023-04-07T10:43:07.198Z,100977.81
2023-04-07T10:45:58.365Z,100973.94
2023-04-07T10:48:27.591Z,100975.72
2023-04-07T10:51:14.990Z,100973.31
2023-04-07T10:54:15.778Z,100977.78
2023-04-07T10:57:08.317Z,100970.44
2023-04-07T10:59:35.473Z,100971.22
2023-04-07T11:02:35.477Z,100969.84
2023-04-07T11:05:04.766Z,100962.66
2023-04-07T11:07:55.331Z,100957.41
2023-04-07T11:10:23.438Z,100957.34
2023-04-07T11:13:06.294Z,100959.13
2023-04-07T11:15:34.730Z,100945.13
2023-04-07T11:18:23.451Z,100956.59
2023-04-07T11:20:54.559Z,100958.47
2023-04-07T11:23:22.854Z,100960.00
2023-04-07T11:25:52.499Z,100952.53
2023-04-07T11:28:20.430Z,100956.84
2023-04-07T11:30:50.921Z,100955.66
2023-04-07T11:33:20.739Z,100959.41
2023-04-07T11:36:05.342Z,100954.53
2023-04-07T11:38:37.617Z,100959.22
2023-04-07T11:41:14.226Z,100964.19
2023-04-07T11:43:42.554Z,100963.06
2023-04-07T11:46:11.879Z,100960.19
2023-04-07T11:48:41.096Z,100964.00
2023-04-07T11:51:17.512Z,100959.34
2023-04-07T11:53:45.837Z,100960.19
2023-04-07T11:56:15.845Z,100946.47
2023-04-07T11:58:49.811Z,100956.44
2023-04-07T12:01:16.967Z,100948.84
2023-04-07T12:03:57.983Z,100949.31
2023-04-07T12:06:34.309Z,100964.38
2023-04-07T12:09:03.207Z,100964.75
2023-04-07T12:11:37.459Z,100964.81
2023-04-07T12:14:08.451Z,100968.69
2023-04-07T12:16:40.428Z,100967.59
2023-04-07T12:19:09.823Z,100964.06
2023-04-07T12:21:39.838Z,100956.34
2023-04-07T12:24:07.345Z,100952.75
2023-04-07T12:26:35.052Z,100958.69
2023-04-07T12:29:02.462Z,100951.78
2023-04-07T12:31:29.976Z,100952.28
2023-04-07T12:33:57.687Z,100956.56
2023-04-07T12:36:24.603Z,100957.84
2023-04-07T12:38:54.982Z,100951.31
2023-04-07T12:41:22.625Z,100957.69
2023-04-07T12:43:51.099Z,100949.88
2023-04-07T12:46:18.998Z,100942.44
2023-04-07T12:48:47.914Z,100940.56
2023-04-07T12:51:15.832Z,100939.59
2023-04-07T12:53:43.617Z,100933.72
2023-04-07T12:56:12.759Z,100945.22
2023-04-07T12:58:40.835Z,100949.09
2023-04-07T13:01:08.105Z,100940.94
2023-04-07T13:03:36.559Z,100937.47
2023-04-07T13:06:05.432Z,100936.09
2023-04-07T13:08:32.240Z,100938.25
2023-04-07T13:10:59.770Z,100937.94
2023-04-07T13:13:28.928Z,100940.09
2023-04-07T13:15:55.845Z,100938.81
2023-04-07T13:18:23.530Z,100942.44
2023-04-07T13:21:03.018Z,100934.09
2023-04-07T13:23:43.371Z,100937.38
2023-04-07T13:26:17.156Z,100939.31
2023-04-07T13:28:46.028Z,100947.56
2023-04-07T13:31:13.689Z,100937.22
2023-04-07T13:33:41.104Z,100932.16
2023-04-07T13:36:08.636Z,100936.81
2023-04-07T13:38:36.393Z,100933.75
2023-04-07T13:41:03.492Z,100924.50
2023-04-07T13:43:31.401Z,100929.44
2023-04-07T13:46:03.102Z,100933.72
2023-04-07T13:48:31.692Z,100937.31
2023-04-07T13:51:00.210Z,100940.50
2023-04-07T13:53:27.877Z,100935.22
2023-04-07T13:56:00.745Z,100936.97
2023-04-07T13:58:31.630Z,100942.91
2023-04-07T14:01:01.574Z,100944.69
2023-04-07T14:03:29.241Z,100936.13
2023-04-07T14:05:56.875Z,100925.81
2023-04-07T14:08:24.789Z,100917.72
2023-04-07T14:10:53.649Z,100921.28
2023-04-07T14:13:21.109Z,100911.94
2023-04-07T14:15:49.036Z,100917.13
2023-04-07T14:18:18.437Z,100920.91
2023-04-07T14:20:46.007Z,100914.47
2023-04-07T14:23:16.648Z,100923.59
2023-04-07T14:25:47.965Z,100921.50
2023-04-07T14:28:15.441Z,100919.78
2023-04-07T14:30:42.857Z,100927.69
2023-04-07T14:33:11.052Z,100925.53
2023-04-07T14:35:40.600Z,100919.06
2023-04-07T14:38:09.141Z,100913.28
2023-04-07T14:40:36.621Z,100914.00
2023-04-07T14:43:07.391Z,100909.44
2023-04-07T14:45:36.629Z,100903.91
2023-04-07T14:48:04.630Z,100901.88
2023-04-07T14:50:33.747Z,100907.06
2023-04-07T14:53:02.055Z,100904.22
2023-04-07T14:55:29.386Z,100904.09
2023-04-07T14:57:58.612Z,100894.00
2023-04-07T15:00:26.830Z,100901.97
2023-04-07T15:02:56.131Z,100891.28
2023-04-07T15:05:24.018Z,100891.78
2023-04-07T15:07:53.916Z,100891.03
2023-04-07T15:10:23.938Z,100895.47
2023-04-07T15:12:51.667Z,100890.31
2023-04-07T15:15:19.362Z,100882.88
2023-04-07T15:17:46.164Z,100894.00
2023-04-07T15:20:13.805Z,100887.72
2023-04-07T15:22:41.932Z,100889.03
2023-04-07T15:25:10.066Z,100896.59
2023-04-07T15:27:39.452Z,100897.28
2023-04-07T15:30:08.678Z,100898.13
2023-04-07T15:32:36.079Z,100895.75
2023-04-07T15:35:03.925Z,100889.19
2023-04-07T15:37:35.196Z,100894.53
2023-04-07T15:40:03.163Z,100889.44
2023-04-07T15:42:30.826Z,100887.59
2023-04-07T15:44:59.873Z,100885.16
2023-04-07T15:47:29.121Z,100889.41
2023-04-07T15:49:56.950Z,100883.81
2023-04-07T15:52:28.905Z,100890.31
2023-04-07T15:54:56.565Z,100886.59
2023-04-07T15:57:24.027Z,100877.94
2023-04-07T15:59:51.690Z,100881.56
2023-04-07T16:02:20.213Z,100886.75
2023-04-07T16:04:49.281Z,100884.56
2023-04-07T16:07:17.168Z,100887.34
2023-04-07T16:09:44.880Z,100884.81
2023-04-07T16:12:12.527Z,100883.00
2023-04-07T16:14:40.129Z,100891.06
2023-04-07T16:17:08.074Z,100886.03
2023-04-07T16:19:39.800Z,100887.69
2023-04-07T16:22:07.576Z,100885.53
2023-04-07T16:24:36.030Z,100885.53
2023-04-07T16:27:04.378Z,100884.69
2023-04-07T16:29:32.686Z,100888.78
2023-04-07T16:32:03.040Z,100890.81
2023-04-07T16:34:30.645Z,100892.50
2023-04-07T16:36:59.679Z,100889.84
2023-04-07T16:39:29.276Z,100887.34
2023-04-07T16:41:57.427Z,100886.50
2023-04-07T16:44:27.394Z,100887.69
2023-04-07T16:46:55.910Z,100887.81
2023-04-07T16:49:24.029Z,100891.78
2023-04-07T16:51:51.438Z,100895.16
2023-04-07T16:54:21.539Z,100898.38
2023-04-07T16:56:50.551Z,100893.56
2023-04-07T16:59:19.131Z,100889.13
2023-04-07T17:01:47.390Z,100889.13
2023-04-07T17:04:16.323Z,100890.44
2023-04-07T17:06:43.881Z,100892.63
2023-04-07T17:09:11.442Z,100888.75
2023-04-07T17:11:41.895Z,100895.72
2023-04-07T17:14:09.542Z,100892.63
2023-04-07T17:16:37.489Z,100887.56
2023-04-07T17:19:05.417Z,100889.97
2023-04-07T17:21:32.284Z,100889.09
2023-04-07T17:23:59.717Z,100890.00
2023-04-07T17:26:27.166Z,100877.63
2023-04-07T17:28:56.553Z,100880.78
2023-04-07T17:31:24.438Z,100885.28
2023-04-07T17:33:52.047Z,100889.59
2023-04-07T17:36:20.359Z,100880.16
2023-04-07T17:38:48.132Z,100888.06
2023-04-07T17:41:15.376Z,100885.41
2023-04-07T17:43:42.940Z,100887.09
2023-04-07T17:46:12.346Z,100891.38
2023-04-07T17:48:41.676Z,100894.75
2023-04-07T17:51:09.826Z,100897.34
2023-04-07T17:53:37.837Z,100896.84
2023-04-07T17:56:05.982Z,100902.81
2023-04-07T17:58:34.010Z,100897.06
2023-04-07T18:01:01.771Z,100901.84
2023-04-07T18:03:36.451Z,100894.34
2023-04-07T18:06:04.254Z,100898.09
2023-04-07T18:08:31.982Z,100901.69
2023-04-07T18:10:59.617Z,100903.66
2023-04-07T18:13:26.768Z,100907.09
2023-04-07T18:15:54.600Z,100909.50
2023-04-07T18:18:22.674Z,100914.59
2023-04-07T18:20:52.321Z,100914.59
2023-04-07T18:23:20.175Z,100912.53
2023-04-07T18:25:48.295Z,100908.72
2023-04-07T18:28:15.859Z,100911.28
2023-04-07T18:30:44.452Z,100915.97
2023-04-07T18:33:14.450Z,100913.63
2023-04-07T18:35:43.778Z,100907.06
2023-04-07T18:38:12.112Z,100916.19
2023-04-07T18:40:41.445Z,100921.47
2023-04-07T18:43:08.945Z,100925.22
2023-04-07T18:45:36.591Z,100923.09
2023-04-07T18:48:04.889Z,100925.44
2023-04-07T18:50:33.040Z,100923.06
2023-04-07T18:53:00.795Z,100933.59
2023-04-07T18:55:31.249Z,100932.94
2023-04-07T18:57:58.445Z,100933.50
2023-04-07T19:00:25.743Z,100930.06
2023-04-07T19:02:56.870Z,100934.00
2023-04-07T19:05:26.180Z,100932.03
2023-04-07T19:07:53.478Z,100930.31
2023-04-07T19:10:22.263Z,100941.84
2023-04-07T19:12:53.172Z,100943.50
2023-04-07T19:15:20.460Z,100957.31
2023-04-07T19:17:48.191Z,100947.78
2023-04-07T19:20:15.091Z,100954.47
2023-04-07T19:22:43.402Z,100960.28
2023-04-07T19:25:11.100Z,100956.00
2023-04-07T19:27:38.737Z,100959.56
2023-04-07T19:30:09.048Z,100970.38
2023-04-07T19:32:37.047Z,100967.00
2023-04-07T19:35:05.009Z,100965.56
2023-04-07T19:37:32.826Z,100967.00
2023-04-07T19:40:03.242Z,100974.53
2023-04-07T19:42:30.451Z,100973.25
2023-04-07T19:44:58.531Z,100978.38
2023-04-07T19:47:29.336Z,100978.06
2023-04-07T19:49:56.176Z,100977.16
2023-04-07T19:52:23.088Z,100969.25
2023-04-07T19:54:52.102Z,100972.44
2023-04-07T19:57:19.739Z,100985.84
2023-04-07T19:59:46.918Z,100981.97
2023-04-07T20:02:14.263Z,100984.31
2023-04-07T20:04:44.025Z,100981.31
2023-04-07T20:07:11.933Z,100995.34
2023-04-07T20:09:39.707Z,100990.97
2023-04-07T20:12:07.236Z,100990.88
2023-04-07T20:14:34.854Z,100997.09
2023-04-07T20:17:02.647Z,100998.28
2023-04-07T20:19:30.041Z,100989.44
2023-04-07T20:21:59.208Z,100990.66
2023-04-07T20:24:26.674Z,100998.72
2023-04-07T20:26:53.926Z,101002.97
2023-04-07T20:29:22.331Z,101003.69
2023-04-07T20:31:50.086Z,100997.25
2023-04-07T20:34:17.181Z,100990.41
2023-04-07T20:36:44.992Z,101001.16
2023-04-07T20:39:13.798Z,101003.22
2023-04-07T20:41:41.206Z,101006.31
2023-04-07T20:44:08.861Z,101006.56
2023-04-07T20:46:35.740Z,101011.03
2023-04-07T20:49:03.666Z,101005.88
2023-04-07T20:51:31.696Z,101013.38
2023-04-07T20:53:59.607Z,101013.91
2023-04-07T20:56:28.023Z,101019.59
2023-04-07T20:58:55.745Z,101022.50
2023-04-07T21:01:23.212Z,101014.31
2023-04-07T21:03:50.057Z,101018.19
2023-04-07T21:06:18.591Z,101017.91
2023-04-07T21:08:45.440Z,101023.69
2023-04-07T21:11:13.284Z,101022.88
2023-04-07T21:13:43.154Z,101028.38
2023-04-07T21:16:12.548Z,101026.53
2023-04-07T21:18:39.908Z,101035.06
2023-04-07T21:21:07.764Z,101035.06
2023-04-07T21:23:35.211Z,101027.28
2023-04-07T21:26:02.527Z,101027.28
2023-04-07T21:28:30.569Z,101035.59
2023-04-07T21:30:59.907Z,101040.88
2023-04-07T21:33:27.260Z,101036.81
2023-04-07T21:35:55.083Z,101044.66
2023-04-07T21:38:22.989Z,101047.25
2023-04-07T21:40:50.450Z,101040.28
2023-04-07T21:43:18.133Z,101042.31
2023-04-07T21:45:45.899Z,101043.69
2023-04-07T21:48:14.452Z,101048.09
2023-04-07T21:50:42.568Z,101039.59
2023-04-07T21:53:09.835Z,101039.94
2023-04-07T21:55:37.360Z,101034.50
2023-04-07T21:58:04.274Z,101044.19
2023-04-07T22:00:31.746Z,101042.81
2023-04-07T22:02:58.712Z,101043.97
2023-04-07T22:05:28.043Z,101044.16
2023-04-07T22:07:55.676Z,101046.69
2023-04-07T22:10:24.642Z,101046.16
2023-04-07T22:12:52.402Z,101048.56
2023-04-07T22:15:20.218Z,101045.00
2023-04-07T22:17:47.677Z,101045.50
2023-04-07T22:20:15.619Z,101049.72
2023-04-07T22:22:44.559Z,101049.59
2023-04-07T22:25:12.716Z,101047.72
2023-04-07T22:27:40.109Z,101046.00
2023-04-07T22:30:08.938Z,101047.19
2023-04-07T22:32:37.201Z,101047.56
2023-04-07T22:35:05.265Z,101039.94
2023-04-07T22:37:32.926Z,101051.34
2023-04-07T22:40:04.220Z,101042.50
2023-04-07T22:42:31.630Z,101048.78
2023-04-07T22:44:59.459Z,101052.53
2023-04-07T22:47:27.691Z,101056.59
2023-04-07T22:49:54.698Z,101046.56
2023-04-07T22:52:21.867Z,101053.53
2023-04-07T22:54:49.960Z,101052.38
2023-04-07T22:57:19.308Z,101058.66
2023-04-07T22:59:46.888Z,101059.31
2023-04-07T23:02:15.358Z,101057.78
2023-04-07T23:04:43.401Z,101055.75
2023-04-07T23:07:10.672Z,101064.44
2023-04-07T23:09:38.293Z,101066.47
2023-04-07T23:12:05.995Z,101058.31
2023-04-07T23:14:34.255Z,101063.56
2023-04-07T23:17:03.205Z,101073.28
2023-04-07T23:19:30.857Z,101077.53
2023-04-07T23:21:58.681Z,101066.81
2023-04-07T23:24:26.573Z,101069.88
2023-04-07T23:26:53.805Z,101073.97
2023-04-07T23:29:21.354Z,101074.28
2023-04-07T23:31:51.578Z,101078.19
2023-04-07T23:34:18.873Z,101069.69
2023-04-07T23:36:46.570Z,101071.22
2023-04-07T23:39:13.517Z,101070.53
2023-04-07T23:41:41.329Z,101071.03
2023-04-07T23:44:08.952Z,101071.38
2023-04-07T23:46:36.108Z,101079.56
2023-04-07T23:49:05.079Z,101070.22
2023-04-07T23:51:32.413Z,101074.31
2023-04-07T23:54:00.245Z,101069.50
2023-04-07T23:56:27.593Z,101080.41
2023-04-07T23:58:55.011Z,101074.97
